createdAt,value
2022-12-23T00:01:18.185Z,38.72
2022-12-23T00:04:03.981Z,39.38
2022-12-23T00:06:49.318Z,38.38
2022-12-23T00:09:34.775Z,40.00
2022-12-23T00:12:40.252Z,39.25
2022-12-23T00:15:29.839Z,42.17
2022-12-23T00:18:15.489Z,45.20
2022-12-23T00:21:08.571Z,41.38
2022-12-23T00:23:57.456Z,44.22
2022-12-23T00:26:43.097Z,44.53
2022-12-23T00:29:31.967Z,44.28
2022-12-23T00:32:17.659Z,39.90
2022-12-23T00:35:02.940Z,46.05
2022-12-23T00:37:48.565Z,39.67
2022-12-23T00:40:53.999Z,47.20
2022-12-23T00:43:39.536Z,37.53
2022-12-23T00:46:25.413Z,36.80
2022-12-23T00:49:34.141Z,36.35
2022-12-23T00:52:19.414Z,41.20
2022-12-23T00:55:07.543Z,41.15
2022-12-23T00:57:53.149Z,47.65
2022-12-23T01:00:56.857Z,47.50
2022-12-23T01:04:00.780Z,46.78
2022-12-23T01:06:46.352Z,51.90
2022-12-23T01:09:31.794Z,50.63
2022-12-23T01:12:20.085Z,52.90
2022-12-23T01:15:16.116Z,51.80
2022-12-23T01:18:01.963Z,51.00
2022-12-23T01:20:47.259Z,50.00
2022-12-23T01:23:34.252Z,49.15
2022-12-23T01:26:19.480Z,50.47
2022-12-23T01:29:05.092Z,48.75
2022-12-23T01:31:50.525Z,52.25
2022-12-23T01:34:37.524Z,52.22
2022-12-23T01:37:22.895Z,52.00
2022-12-23T01:40:09.680Z,53.10
2022-12-23T01:42:54.997Z,54.85
2022-12-23T01:45:43.549Z,55.30
2022-12-23T01:48:29.133Z,57.25
2022-12-23T01:51:28.536Z,49.33
2022-12-23T01:54:13.775Z,35.22
2022-12-23T01:56:59.497Z,39.40
2022-12-23T02:00:04.240Z,23.98
2022-12-23T02:03:11.516Z,20.40
2022-12-23T02:06:18.504Z,16.02
2022-12-23T02:09:18.172Z,13.93
2022-12-23T02:12:06.516Z,15.52
2022-12-23T02:15:32.381Z,16.52
2022-12-23T02:19:17.773Z,22.10
2022-12-23T02:22:22.021Z,25.33
2022-12-23T02:25:45.734Z,26.33
2022-12-23T02:29:12.874Z,29.45
2022-12-23T02:32:00.123Z,29.10
2022-12-23T02:34:54.419Z,26.08
2022-12-23T02:38:01.388Z,23.05
2022-12-23T02:41:00.460Z,32.85
2022-12-23T02:43:55.873Z,34.50
2022-12-23T02:47:06.432Z,36.15
2022-12-23T02:49:56.962Z,35.25
2022-12-23T02:52:46.530Z,39.47
2022-12-23T02:55:35.888Z,36.80
2022-12-23T02:58:26.365Z,35.10
2022-12-23T03:01:14.936Z,37.38
2022-12-23T03:04:00.696Z,37.20
2022-12-23T03:06:51.592Z,32.47
2022-12-23T03:09:45.017Z,33.35
2022-12-23T03:13:04.446Z,33.42
2022-12-23T03:16:24.588Z,31.92
2022-12-23T03:19:35.249Z,36.40
2022-12-23T03:22:46.959Z,31.98
2022-12-23T03:25:46.061Z,29.90
2022-12-23T03:28:39.552Z,29.38
2022-12-23T03:31:33.262Z,31.52
2022-12-23T03:34:24.261Z,32.17
2022-12-23T03:37:11.790Z,34.78
2022-12-23T03:40:16.729Z,32.13
2022-12-23T03:43:10.497Z,27.95
2022-12-23T03:46:03.570Z,25.83
2022-12-23T03:49:07.097Z,27.77
2022-12-23T03:51:55.420Z,27.65
2022-12-23T03:54:51.240Z,31.70
2022-12-23T03:58:24.535Z,29.77
2022-12-23T04:01:31.012Z,30.63
2022-12-23T04:04:25.502Z,28.58
2022-12-23T04:07:17.354Z,34.23
2022-12-23T04:10:07.584Z,30.58
2022-12-23T04:12:58.024Z,31.83
2022-12-23T04:15:43.694Z,34.92
2022-12-23T04:18:29.655Z,32.80
2022-12-23T04:21:14.952Z,29.95
2022-12-23T04:24:00.448Z,26.52
2022-12-23T04:26:47.612Z,29.17
2022-12-23T04:29:36.205Z,28.38
2022-12-23T04:32:21.745Z,27.98
2022-12-23T04:35:07.859Z,30.90
2022-12-23T04:37:53.493Z,34.80
2022-12-23T04:40:38.787Z,35.17
2022-12-23T04:43:24.540Z,37.97
2022-12-23T04:46:09.683Z,37.70
2022-12-23T04:48:55.091Z,38.35
2022-12-23T04:51:40.596Z,39.05
2022-12-23T04:54:26.401Z,38.00
2022-12-23T04:57:11.779Z,35.83
2022-12-23T04:59:57.248Z,35.92
2022-12-23T05:02:43.088Z,38.05
2022-12-23T05:05:28.852Z,33.63
2022-12-23T05:08:19.341Z,36.40
2022-12-23T05:11:05.137Z,35.95
2022-12-23T05:13:50.399Z,37.47
2022-12-23T05:16:36.045Z,39.08
2022-12-23T05:19:21.359Z,39.88
2022-12-23T05:22:07.763Z,40.67
2022-12-23T05:24:53.322Z,39.63
2022-12-23T05:27:38.951Z,33.38
2022-12-23T05:30:24.236Z,37.05
2022-12-23T05:33:09.783Z,41.65
2022-12-23T05:35:59.869Z,41.28
2022-12-23T05:38:45.369Z,44.05
2022-12-23T05:41:31.037Z,43.92
2022-12-23T05:44:16.508Z,42.30
2022-12-23T05:47:02.227Z,42.60
2022-12-23T05:49:47.551Z,44.08
2022-12-23T05:52:33.184Z,40.78
2022-12-23T05:55:18.676Z,44.55
2022-12-23T05:58:04.080Z,38.22
2022-12-23T06:01:01.166Z,37.40
2022-12-23T06:03:49.308Z,36.55
2022-12-23T06:06:34.960Z,36.20
2022-12-23T06:09:20.549Z,36.90
2022-12-23T06:12:06.187Z,32.97
2022-12-23T06:14:52.086Z,30.77
2022-12-23T06:17:38.504Z,32.95
2022-12-23T06:20:23.684Z,33.15
2022-12-23T06:23:09.279Z,34.35
2022-12-23T06:26:04.525Z,33.85
2022-12-23T06:28:49.943Z,36.42
2022-12-23T06:31:35.401Z,37.20
2022-12-23T06:34:20.995Z,35.28
2022-12-23T06:37:06.886Z,39.47
2022-12-23T06:39:52.104Z,41.45
2022-12-23T06:42:38.369Z,41.10
2022-12-23T06:45:23.557Z,40.70
2022-12-23T06:48:09.131Z,42.45
2022-12-23T06:50:54.710Z,42.42
2022-12-23T06:53:40.270Z,42.65
2022-12-23T06:56:26.237Z,44.30
2022-12-23T06:59:11.677Z,45.85
2022-12-23T07:01:57.069Z,48.90
2022-12-23T07:04:42.529Z,51.83
2022-12-23T07:07:28.181Z,53.75
2022-12-23T07:10:13.830Z,53.15
2022-12-23T07:13:05.169Z,51.25
2022-12-23T07:15:53.423Z,51.45
2022-12-23T07:18:41.625Z,52.53
2022-12-23T07:21:29.832Z,47.55
2022-12-23T07:24:18.408Z,43.33
2022-12-23T07:27:03.840Z,41.78
2022-12-23T07:29:49.216Z,41.50
2022-12-23T07:32:35.292Z,38.42
2022-12-23T07:35:20.824Z,39.00
2022-12-23T07:38:06.084Z,39.40
2022-12-23T07:40:51.264Z,34.60
2022-12-23T07:43:36.855Z,35.42
2022-12-23T07:46:22.637Z,34.33
2022-12-23T07:49:08.291Z,35.38
2022-12-23T07:51:53.609Z,33.88
2022-12-23T07:54:39.005Z,35.05
2022-12-23T07:57:24.505Z,36.65
2022-12-23T08:00:14.984Z,35.35
2022-12-23T08:03:00.383Z,35.13
2022-12-23T08:05:45.864Z,34.05
2022-12-23T08:08:32.666Z,34.00
2022-12-23T08:11:21.090Z,34.95
2022-12-23T08:14:06.999Z,32.47
2022-12-23T08:16:55.164Z,32.72
2022-12-23T08:19:40.376Z,30.48
2022-12-23T08:22:26.205Z,29.45
2022-12-23T08:25:11.550Z,28.80
2022-12-23T08:27:59.506Z,30.17
2022-12-23T08:30:44.859Z,25.40
2022-12-23T08:33:30.777Z,29.38
2022-12-23T08:36:23.097Z,29.92
2022-12-23T08:39:11.589Z,27.50
2022-12-23T08:41:57.277Z,29.17
2022-12-23T08:44:45.669Z,29.08
2022-12-23T08:47:30.981Z,27.80
2022-12-23T08:50:16.814Z,30.00
2022-12-23T08:53:02.037Z,27.52
2022-12-23T08:55:50.684Z,27.88
2022-12-23T08:58:45.474Z,27.95
2022-12-23T09:01:33.903Z,29.05
2022-12-23T09:04:19.230Z,27.10
2022-12-23T09:07:07.838Z,29.40
2022-12-23T09:09:53.273Z,29.67
2022-12-23T09:12:39.053Z,31.33
2022-12-23T09:15:24.406Z,29.15
2022-12-23T09:18:11.708Z,30.35
2022-12-23T09:21:05.531Z,30.42
2022-12-23T09:23:52.203Z,28.38
2022-12-23T09:26:37.460Z,29.35
2022-12-23T09:29:23.240Z,29.92
2022-12-23T09:32:09.905Z,30.13
2022-12-23T09:34:55.612Z,30.73
2022-12-23T09:37:41.467Z,33.65
2022-12-23T09:40:29.939Z,30.92
2022-12-23T09:43:57.924Z,34.25
2022-12-23T09:46:51.258Z,30.75
2022-12-23T09:49:45.449Z,31.73
2022-12-23T09:52:59.487Z,37.63
2022-12-23T09:56:25.232Z,46.00
2022-12-23T09:59:16.347Z,40.92
2022-12-23T10:02:29.962Z,45.22
2022-12-23T10:05:32.176Z,49.65
2022-12-23T10:08:50.367Z,49.00
2022-12-23T10:11:44.107Z,53.55
2022-12-23T10:14:34.272Z,59.15
2022-12-23T10:17:35.010Z,60.35
2022-12-23T10:20:32.544Z,60.28
2022-12-23T10:23:29.202Z,64.70
2022-12-23T10:26:48.677Z,62.05
2022-12-23T10:29:34.653Z,60.78
2022-12-23T10:32:46.699Z,59.88
2022-12-23T10:35:52.462Z,57.58
2022-12-23T10:39:08.706Z,54.83
2022-12-23T10:42:21.619Z,55.08
2022-12-23T10:45:15.781Z,53.03
2022-12-23T10:48:29.489Z,52.70
2022-12-23T10:51:28.719Z,51.45
2022-12-23T10:54:24.820Z,53.00
2022-12-23T10:57:12.106Z,51.05
2022-12-23T10:59:58.087Z,51.65
2022-12-23T11:03:23.668Z,53.90
2022-12-23T11:06:11.485Z,53.57
2022-12-23T11:09:00.433Z,55.00
2022-12-23T11:12:01.719Z,54.97
2022-12-23T11:14:57.825Z,54.38
2022-12-23T11:17:43.286Z,57.60
2022-12-23T11:20:29.518Z,56.88
2022-12-23T11:23:36.781Z,59.40
2022-12-23T11:26:22.226Z,60.50
2022-12-23T11:29:24.404Z,60.15
2022-12-23T11:32:28.061Z,61.40
2022-12-23T11:35:35.722Z,58.97
2022-12-23T11:38:22.977Z,61.17
2022-12-23T11:41:08.494Z,60.95
2022-12-23T11:44:03.880Z,61.58
2022-12-23T11:46:50.511Z,63.70
2022-12-23T11:49:49.488Z,61.13
2022-12-23T11:52:50.984Z,58.80
2022-12-23T11:55:49.836Z,58.80
2022-12-23T11:58:47.604Z,57.92
2022-12-23T12:01:37.401Z,57.17
2022-12-23T12:04:25.174Z,57.55
2022-12-23T12:07:14.779Z,54.83
2022-12-23T12:10:01.928Z,55.42
2022-12-23T12:12:55.483Z,52.97
2022-12-23T12:16:18.792Z,52.78
2022-12-23T12:19:45.652Z,50.95
2022-12-23T12:22:52.682Z,48.13
2022-12-23T12:25:43.734Z,47.30
2022-12-23T12:28:37.045Z,44.80
2022-12-23T12:31:34.271Z,45.67
2022-12-23T12:34:41.932Z,39.95
2022-12-23T12:37:51.654Z,41.72
2022-12-23T12:40:44.825Z,40.33
2022-12-23T12:43:37.591Z,39.67
2022-12-23T12:47:21.825Z,39.75
2022-12-23T12:50:18.631Z,38.33
2022-12-23T12:53:14.283Z,36.95
2022-12-23T12:56:12.236Z,36.15
2022-12-23T12:59:01.243Z,36.15
2022-12-23T13:02:05.509Z,37.35
2022-12-23T13:05:14.977Z,35.58
2022-12-23T13:08:38.099Z,35.60
2022-12-23T13:11:45.575Z,34.88
2022-12-23T13:15:11.287Z,35.38
2022-12-23T13:18:07.531Z,34.83
2022-12-23T13:21:10.482Z,34.85
2022-12-23T13:24:21.437Z,36.30
2022-12-23T13:27:37.750Z,36.78
2022-12-23T13:30:27.337Z,34.95
2022-12-23T13:33:22.175Z,35.60
2022-12-23T13:36:32.407Z,35.15
2022-12-23T13:39:31.910Z,32.78
2022-12-23T13:42:30.425Z,29.70
2022-12-23T13:45:18.541Z,27.48
2022-12-23T13:48:17.669Z,24.75
2022-12-23T13:51:10.722Z,24.20
2022-12-23T13:54:16.877Z,23.52
2022-12-23T13:57:12.481Z,21.80
2022-12-23T14:00:22.129Z,21.77
2022-12-23T14:03:12.782Z,22.25
2022-12-23T14:05:57.953Z,22.30
2022-12-23T14:08:43.641Z,22.77
2022-12-23T14:11:38.654Z,22.55
2022-12-23T14:14:25.548Z,23.40
2022-12-23T14:17:20.724Z,22.38
2022-12-23T14:20:30.890Z,23.48
2022-12-23T14:24:03.985Z,22.20
2022-12-23T14:27:38.308Z,20.77
2022-12-23T14:30:40.475Z,22.60
2022-12-23T14:33:33.089Z,20.58
2022-12-23T14:36:26.673Z,22.38
2022-12-23T14:39:14.774Z,22.75
2022-12-23T14:42:05.467Z,23.65
2022-12-23T14:44:52.750Z,23.70
2022-12-23T14:47:40.497Z,24.00
2022-12-23T14:50:38.490Z,22.75
2022-12-23T14:53:29.168Z,23.38
2022-12-23T14:56:39.401Z,24.55
2022-12-23T14:59:32.757Z,22.80
2022-12-23T15:02:32.163Z,23.25
2022-12-23T15:05:23.272Z,23.80
2022-12-23T15:08:27.538Z,23.95
2022-12-23T15:11:39.908Z,24.02
2022-12-23T15:14:36.786Z,24.98
2022-12-23T15:17:29.982Z,24.70
2022-12-23T15:20:21.417Z,23.60
2022-12-23T15:23:14.078Z,24.23
2022-12-23T15:26:03.919Z,20.40
2022-12-23T15:28:49.658Z,21.88
2022-12-23T15:31:49.081Z,18.27
2022-12-23T15:34:37.864Z,18.10
2022-12-23T15:37:30.980Z,18.80
2022-12-23T15:40:34.979Z,18.83
2022-12-23T15:43:25.098Z,19.25
2022-12-23T15:46:29.126Z,19.15
2022-12-23T15:49:16.154Z,19.10
2022-12-23T15:52:11.150Z,19.67
2022-12-23T15:55:11.149Z,21.15
2022-12-23T15:57:57.982Z,23.85
2022-12-23T16:00:53.371Z,21.77
2022-12-23T16:03:41.397Z,24.55
2022-12-23T16:06:34.006Z,24.40
2022-12-23T16:09:19.240Z,24.27
2022-12-23T16:12:26.238Z,25.10
2022-12-23T16:15:30.650Z,24.00
2022-12-23T16:18:26.625Z,26.55
2022-12-23T16:21:15.652Z,27.25
2022-12-23T16:24:06.473Z,25.90
2022-12-23T16:26:54.309Z,27.00
2022-12-23T16:29:40.351Z,26.08
2022-12-23T16:32:26.955Z,23.13
2022-12-23T16:35:43.060Z,25.63
2022-12-23T16:38:30.544Z,23.40
2022-12-23T16:41:15.762Z,23.73
2022-12-23T16:44:02.019Z,23.10
2022-12-23T16:46:52.568Z,21.33
2022-12-23T16:49:40.833Z,20.55
2022-12-23T16:52:26.448Z,20.08
2022-12-23T16:55:18.208Z,17.80
2022-12-23T16:58:06.309Z,14.93
2022-12-23T17:00:53.037Z,14.35
2022-12-23T17:03:39.111Z,10.65
2022-12-23T17:06:25.135Z,9.35
2022-12-23T17:09:11.758Z,8.20
2022-12-23T17:11:57.405Z,6.22
2022-12-23T17:14:42.864Z,5.90
2022-12-23T17:17:28.273Z,5.85
2022-12-23T17:20:15.056Z,6.25
2022-12-23T17:23:00.600Z,5.53
2022-12-23T17:25:46.202Z,11.20
2022-12-23T17:28:35.611Z,7.72
2022-12-23T17:31:26.609Z,6.63
2022-12-23T17:34:20.874Z,6.40
2022-12-23T17:37:17.088Z,7.90
2022-12-23T17:40:02.405Z,9.30
2022-12-23T17:42:50.872Z,11.10
2022-12-23T17:45:36.666Z,10.48
2022-12-23T17:48:27.959Z,11.52
2022-12-23T17:51:18.764Z,12.23
2022-12-23T17:54:07.457Z,13.40
2022-12-23T17:56:53.306Z,13.82
2022-12-23T17:59:39.350Z,14.52
2022-12-23T18:02:27.499Z,14.90
2022-12-23T18:05:46.316Z,13.75
2022-12-23T18:08:31.984Z,11.98
2022-12-23T18:11:37.384Z,13.50
2022-12-23T18:14:28.037Z,12.57
2022-12-23T18:17:20.928Z,13.05
2022-12-23T18:23:14.003Z,11.93
2022-12-23T18:26:00.063Z,10.70
2022-12-23T18:28:47.589Z,11.10
2022-12-23T18:31:33.252Z,10.15
2022-12-23T18:34:19.763Z,11.27
2022-12-23T18:37:09.311Z,12.20
2022-12-23T18:39:54.637Z,11.63
2022-12-23T18:42:40.108Z,10.85
2022-12-23T18:45:35.079Z,12.82
2022-12-23T18:48:21.228Z,12.87
2022-12-23T18:51:06.943Z,11.02
2022-12-23T18:53:52.538Z,11.23
2022-12-23T18:56:37.990Z,11.32
2022-12-23T18:59:29.631Z,10.90
2022-12-23T19:02:15.942Z,12.13
2022-12-23T19:05:01.225Z,13.32
2022-12-23T19:07:47.362Z,11.77
2022-12-23T19:10:35.932Z,11.20
2022-12-23T19:13:21.786Z,14.18
2022-12-23T19:16:19.174Z,12.30
2022-12-23T19:19:09.257Z,10.18
2022-12-23T19:21:54.559Z,10.13
2022-12-23T19:24:51.879Z,11.23
2022-12-23T19:27:46.025Z,11.13
2022-12-23T19:30:32.554Z,10.93
2022-12-23T19:33:18.076Z,10.38
2022-12-23T19:36:09.680Z,10.05
2022-12-23T19:38:57.170Z,10.50
2022-12-23T19:41:42.591Z,11.38
2022-12-23T19:44:28.504Z,10.57
2022-12-23T19:47:14.116Z,11.35
2022-12-23T19:49:59.382Z,9.48
2022-12-23T19:52:44.961Z,9.85
2022-12-23T19:55:30.559Z,8.68
2022-12-23T19:58:15.995Z,7.03
2022-12-23T20:01:16.776Z,6.93
2022-12-23T20:04:07.329Z,7.00
2022-12-23T20:06:52.832Z,5.95
2022-12-23T20:09:38.675Z,6.18
2022-12-23T20:12:26.412Z,6.25
2022-12-23T20:15:11.744Z,7.32
2022-12-23T20:17:57.537Z,7.32
2022-12-23T20:20:44.215Z,7.50
2022-12-23T20:23:31.066Z,6.57
2022-12-23T20:26:18.741Z,7.72
2022-12-23T20:29:07.855Z,6.88
2022-12-23T20:31:53.125Z,6.95
2022-12-23T20:34:40.172Z,6.97
2022-12-23T20:37:25.759Z,7.13
2022-12-23T20:40:13.094Z,7.03
2022-12-23T20:42:58.673Z,7.13
2022-12-23T20:45:43.972Z,6.32
2022-12-23T20:48:34.093Z,6.72
2022-12-23T20:51:26.143Z,6.55
2022-12-23T20:54:11.493Z,7.22
2022-12-23T20:56:56.950Z,6.07
2022-12-23T20:59:42.657Z,5.80
2022-12-23T21:02:28.177Z,5.80
2022-12-23T21:05:15.002Z,6.20
2022-12-23T21:08:03.619Z,5.05
2022-12-23T21:10:54.415Z,5.43
2022-12-23T21:13:40.543Z,5.53
2022-12-23T21:16:26.237Z,6.38
2022-12-23T21:19:20.023Z,4.90
2022-12-23T21:22:05.556Z,5.43
2022-12-23T21:24:51.104Z,5.95
2022-12-23T21:27:36.612Z,5.45
2022-12-23T21:30:22.508Z,5.28
2022-12-23T21:33:08.025Z,4.47
2022-12-23T21:35:56.308Z,5.75
2022-12-23T21:38:43.654Z,5.43
2022-12-23T21:41:33.908Z,5.60
2022-12-23T21:44:19.387Z,5.53
2022-12-23T21:47:07.904Z,5.70
2022-12-23T21:49:54.621Z,5.82
2022-12-23T21:52:40.245Z,7.82
2022-12-23T21:55:25.541Z,5.53
2022-12-23T21:58:11.157Z,6.35
2022-12-23T22:00:59.998Z,5.68
2022-12-23T22:03:47.432Z,6.30
2022-12-23T22:06:40.058Z,6.72
2022-12-23T22:09:29.363Z,7.97
2022-12-23T22:12:17.632Z,5.72
2022-12-23T22:15:07.962Z,6.50
2022-12-23T22:17:56.697Z,6.60
2022-12-23T22:20:46.336Z,7.93
2022-12-23T22:23:32.328Z,6.65
2022-12-23T22:26:25.207Z,6.57
2022-12-23T22:29:14.296Z,6.10
2022-12-23T22:31:59.513Z,6.93
2022-12-23T22:34:44.930Z,5.93
2022-12-23T22:37:30.481Z,6.25
2022-12-23T22:40:16.132Z,7.38
2022-12-23T22:43:01.501Z,7.40
2022-12-23T22:45:47.412Z,7.45
2022-12-23T22:48:34.439Z,7.35
2022-12-23T22:51:22.350Z,8.43
2022-12-23T22:54:08.469Z,7.90
2022-12-23T22:56:53.738Z,7.00
2022-12-23T22:59:39.457Z,7.78
2022-12-23T23:02:26.018Z,7.80
2022-12-23T23:05:13.262Z,8.07
2022-12-23T23:08:01.888Z,7.88
2022-12-23T23:10:47.318Z,6.68
2022-12-23T23:13:34.919Z,7.25
2022-12-23T23:16:21.406Z,6.90
2022-12-23T23:19:09.033Z,7.32
2022-12-23T23:21:55.631Z,7.70
2022-12-23T23:24:41.299Z,8.07
2022-12-23T23:27:26.456Z,8.10
2022-12-23T23:30:12.704Z,7.80
2022-12-23T23:32:57.979Z,9.07
2022-12-23T23:35:46.088Z,7.90
2022-12-23T23:38:31.623Z,6.95
2022-12-23T23:41:22.479Z,7.78
2022-12-23T23:44:10.557Z,8.15
2022-12-23T23:46:56.934Z,8.25
2022-12-23T23:49:42.551Z,9.05
2022-12-23T23:52:28.901Z,7.45
2022-12-23T23:55:14.026Z,8.75
2022-12-23T23:57:59.576Z,7.85
